sensor_id;sensor_type;location;lat;lon;timestamp;temperature;humidity
16879;DHT22;8556;52.218;9.884;2023-06-10T00:00:28;14.20;99.90
16879;DHT22;8556;52.218;9.884;2023-06-10T00:02:56;14.30;99.90
16879;DHT22;8556;52.218;9.884;2023-06-10T00:05:24;14.70;99.90
16879;DHT22;8556;52.218;9.884;2023-06-10T00:07:55;14.50;99.90
16879;DHT22;8556;52.218;9.884;2023-06-10T00:10:22;14.40;99.90
16879;DHT22;8556;52.218;9.884;2023-06-10T00:12:50;14.50;99.90
16879;DHT22;8556;52.218;9.884;2023-06-10T00:15:17;14.40;99.90
16879;DHT22;8556;52.218;9.884;2023-06-10T00:17:44;14.90;99.90
16879;DHT22;8556;52.218;9.884;2023-06-10T00:20:11;14.90;99.90
16879;DHT22;8556;52.218;9.884;2023-06-10T00:22:40;14.70;99.90
16879;DHT22;8556;52.218;9.884;2023-06-10T00:25:11;14.80;99.90
16879;DHT22;8556;52.218;9.884;2023-06-10T00:27:38;14.80;99.90
16879;DHT22;8556;52.218;9.884;2023-06-10T00:30:06;14.60;99.90
16879;DHT22;8556;52.218;9.884;2023-06-10T00:32:33;14.50;99.90
16879;DHT22;8556;52.218;9.884;2023-06-10T00:35:00;13.90;99.90
16879;DHT22;8556;52.218;9.884;2023-06-10T00:37:27;13.60;99.90
16879;DHT22;8556;52.218;9.884;2023-06-10T00:39:55;13.50;99.90
16879;DHT22;8556;52.218;9.884;2023-06-10T00:42:22;13.60;99.90
16879;DHT22;8556;52.218;9.884;2023-06-10T00:44:49;13.70;99.90
16879;DHT22;8556;52.218;9.884;2023-06-10T00:47:16;14.00;99.90
16879;DHT22;8556;52.218;9.884;2023-06-10T00:49:43;14.10;99.90
16879;DHT22;8556;52.218;9.884;2023-06-10T00:52:11;13.60;99.90
16879;DHT22;8556;52.218;9.884;2023-06-10T00:54:39;13.80;99.90
16879;DHT22;8556;52.218;9.884;2023-06-10T00:57:07;14.00;99.90
16879;DHT22;8556;52.218;9.884;2023-06-10T00:59:34;13.80;99.90
16879;DHT22;8556;52.218;9.884;2023-06-10T01:02:01;13.90;99.90
16879;DHT22;8556;52.218;9.884;2023-06-10T01:04:29;14.00;99.90
16879;DHT22;8556;52.218;9.884;2023-06-10T01:07:03;14.00;99.90
16879;DHT22;8556;52.218;9.884;2023-06-10T01:09:38;13.80;99.90
16879;DHT22;8556;52.218;9.884;2023-06-10T01:12:14;13.60;99.90
16879;DHT22;8556;52.218;9.884;2023-06-10T01:14:43;13.40;99.90
16879;DHT22;8556;52.218;9.884;2023-06-10T01:17:11;13.60;99.90
16879;DHT22;8556;52.218;9.884;2023-06-10T01:19:38;13.50;99.90
16879;DHT22;8556;52.218;9.884;2023-06-10T01:22:07;13.40;99.90
16879;DHT22;8556;52.218;9.884;2023-06-10T01:24:36;13.30;99.90
16879;DHT22;8556;52.218;9.884;2023-06-10T01:27:11;12.90;99.90
16879;DHT22;8556;52.218;9.884;2023-06-10T01:29:45;12.70;99.90
16879;DHT22;8556;52.218;9.884;2023-06-10T01:32:17;12.90;99.90
16879;DHT22;8556;52.218;9.884;2023-06-10T01:34:45;13.10;99.90
16879;DHT22;8556;52.218;9.884;2023-06-10T01:37:18;13.30;99.90
16879;DHT22;8556;52.218;9.884;2023-06-10T01:39:46;13.20;99.90
16879;DHT22;8556;52.218;9.884;2023-06-10T01:42:14;13.20;99.90
16879;DHT22;8556;52.218;9.884;2023-06-10T01:44:41;13.10;99.90
16879;DHT22;8556;52.218;9.884;2023-06-10T01:47:08;13.10;99.90
16879;DHT22;8556;52.218;9.884;2023-06-10T01:49:35;13.10;99.90
16879;DHT22;8556;52.218;9.884;2023-06-10T01:52:02;13.00;99.90
16879;DHT22;8556;52.218;9.884;2023-06-10T01:54:30;13.10;99.90
16879;DHT22;8556;52.218;9.884;2023-06-10T01:57:00;13.10;99.90
16879;DHT22;8556;52.218;9.884;2023-06-10T01:59:27;12.90;99.90
16879;DHT22;8556;52.218;9.884;2023-06-10T02:01:54;12.70;99.90
16879;DHT22;8556;52.218;9.884;2023-06-10T02:04:21;12.90;99.90
16879;DHT22;8556;52.218;9.884;2023-06-10T02:06:47;13.00;99.90
16879;DHT22;8556;52.218;9.884;2023-06-10T02:09:16;13.00;99.90
16879;DHT22;8556;52.218;9.884;2023-06-10T02:11:45;12.70;99.90
16879;DHT22;8556;52.218;9.884;2023-06-10T02:14:12;12.40;99.90
16879;DHT22;8556;52.218;9.884;2023-06-10T02:16:38;12.30;99.90
16879;DHT22;8556;52.218;9.884;2023-06-10T02:19:06;12.40;99.90
16879;DHT22;8556;52.218;9.884;2023-06-10T02:21:33;12.60;99.90
16879;DHT22;8556;52.218;9.884;2023-06-10T02:24:00;12.30;99.90
16879;DHT22;8556;52.218;9.884;2023-06-10T02:26:28;12.10;99.90
16879;DHT22;8556;52.218;9.884;2023-06-10T02:28:56;11.90;99.90
16879;DHT22;8556;52.218;9.884;2023-06-10T02:31:23;12.10;99.90
16879;DHT22;8556;52.218;9.884;2023-06-10T02:33:50;12.10;99.90
16879;DHT22;8556;52.218;9.884;2023-06-10T02:36:17;12.30;99.90
16879;DHT22;8556;52.218;9.884;2023-06-10T02:38:44;12.40;99.90
16879;DHT22;8556;52.218;9.884;2023-06-10T02:41:11;12.60;99.90
16879;DHT22;8556;52.218;9.884;2023-06-10T02:43:38;12.50;99.90
16879;DHT22;8556;52.218;9.884;2023-06-10T02:46:06;12.40;99.90
16879;DHT22;8556;52.218;9.884;2023-06-10T02:48:40;12.10;99.90
16879;DHT22;8556;52.218;9.884;2023-06-10T02:51:07;12.00;99.90
16879;DHT22;8556;52.218;9.884;2023-06-10T02:53:34;12.00;99.90
16879;DHT22;8556;52.218;9.884;2023-06-10T02:56:01;12.20;99.90
16879;DHT22;8556;52.218;9.884;2023-06-10T02:58:28;12.20;99.90
16879;DHT22;8556;52.218;9.884;2023-06-10T03:00:55;12.00;99.90
16879;DHT22;8556;52.218;9.884;2023-06-10T03:03:23;11.80;99.90
16879;DHT22;8556;52.218;9.884;2023-06-10T03:05:51;11.80;99.90
16879;DHT22;8556;52.218;9.884;2023-06-10T03:08:18;11.60;99.90
16879;DHT22;8556;52.218;9.884;2023-06-10T03:10:44;11.60;99.90
16879;DHT22;8556;52.218;9.884;2023-06-10T03:13:11;11.60;99.90
16879;DHT22;8556;52.218;9.884;2023-06-10T03:15:39;11.50;99.90
16879;DHT22;8556;52.218;9.884;2023-06-10T03:18:07;11.60;99.90
16879;DHT22;8556;52.218;9.884;2023-06-10T03:20:35;11.70;99.90
16879;DHT22;8556;52.218;9.884;2023-06-10T03:23:03;11.80;99.90
16879;DHT22;8556;52.218;9.884;2023-06-10T03:25:30;11.90;99.90
16879;DHT22;8556;52.218;9.884;2023-06-10T03:27:57;12.00;99.90
16879;DHT22;8556;52.218;9.884;2023-06-10T03:30:24;11.90;99.90
16879;DHT22;8556;52.218;9.884;2023-06-10T03:32:50;12.00;99.90
16879;DHT22;8556;52.218;9.884;2023-06-10T03:35:17;11.90;99.90
16879;DHT22;8556;52.218;9.884;2023-06-10T03:37:46;12.00;99.90
16879;DHT22;8556;52.218;9.884;2023-06-10T03:40:12;12.20;99.90
16879;DHT22;8556;52.218;9.884;2023-06-10T03:42:39;12.10;99.90
16879;DHT22;8556;52.218;9.884;2023-06-10T03:45:07;12.10;99.90
16879;DHT22;8556;52.218;9.884;2023-06-10T03:47:34;12.30;99.90
16879;DHT22;8556;52.218;9.884;2023-06-10T03:50:02;12.30;99.90
16879;DHT22;8556;52.218;9.884;2023-06-10T03:52:29;12.10;99.90
16879;DHT22;8556;52.218;9.884;2023-06-10T03:54:58;12.30;99.90
16879;DHT22;8556;52.218;9.884;2023-06-10T03:57:25;12.40;99.90
16879;DHT22;8556;52.218;9.884;2023-06-10T03:59:51;12.50;99.90
16879;DHT22;8556;52.218;9.884;2023-06-10T04:02:18;12.70;99.90
16879;DHT22;8556;52.218;9.884;2023-06-10T04:04:45;12.70;99.90
16879;DHT22;8556;52.218;9.884;2023-06-10T04:07:12;12.50;99.90
16879;DHT22;8556;52.218;9.884;2023-06-10T04:09:39;12.70;99.90
16879;DHT22;8556;52.218;9.884;2023-06-10T04:12:08;13.50;99.90
16879;DHT22;8556;52.218;9.884;2023-06-10T04:14:36;14.30;99.90
16879;DHT22;8556;52.218;9.884;2023-06-10T04:17:04;14.80;99.90
16879;DHT22;8556;52.218;9.884;2023-06-10T04:19:32;14.90;99.90
16879;DHT22;8556;52.218;9.884;2023-06-10T04:22:00;15.00;99.90
16879;DHT22;8556;52.218;9.884;2023-06-10T04:24:27;14.60;99.90
16879;DHT22;8556;52.218;9.884;2023-06-10T04:26:54;13.90;99.90
16879;DHT22;8556;52.218;9.884;2023-06-10T04:29:22;13.80;99.90
16879;DHT22;8556;52.218;9.884;2023-06-10T04:31:49;13.70;99.90
16879;DHT22;8556;52.218;9.884;2023-06-10T04:34:16;13.60;99.90
16879;DHT22;8556;52.218;9.884;2023-06-10T04:36:43;13.50;99.90
16879;DHT22;8556;52.218;9.884;2023-06-10T04:39:09;13.70;99.90
16879;DHT22;8556;52.218;9.884;2023-06-10T04:41:36;13.80;99.90
16879;DHT22;8556;52.218;9.884;2023-06-10T04:44:03;13.80;99.90
16879;DHT22;8556;52.218;9.884;2023-06-10T04:46:32;13.90;99.90
16879;DHT22;8556;52.218;9.884;2023-06-10T04:48:58;14.00;99.90
16879;DHT22;8556;52.218;9.884;2023-06-10T04:51:25;14.10;99.90
16879;DHT22;8556;52.218;9.884;2023-06-10T04:53:52;14.30;99.90
16879;DHT22;8556;52.218;9.884;2023-06-10T04:56:37;14.10;99.90
16879;DHT22;8556;52.218;9.884;2023-06-10T04:59:04;14.00;99.90
16879;DHT22;8556;52.218;9.884;2023-06-10T05:01:32;14.10;99.90
16879;DHT22;8556;52.218;9.884;2023-06-10T05:03:59;14.20;99.90
16879;DHT22;8556;52.218;9.884;2023-06-10T05:06:26;14.30;99.90
16879;DHT22;8556;52.218;9.884;2023-06-10T05:08:53;14.30;99.90
16879;DHT22;8556;52.218;9.884;2023-06-10T05:11:20;14.20;99.90
16879;DHT22;8556;52.218;9.884;2023-06-10T05:13:47;14.00;99.90
16879;DHT22;8556;52.218;9.884;2023-06-10T05:16:14;14.20;99.90
16879;DHT22;8556;52.218;9.884;2023-06-10T05:18:42;14.20;99.90
16879;DHT22;8556;52.218;9.884;2023-06-10T05:21:10;14.20;99.90
16879;DHT22;8556;52.218;9.884;2023-06-10T05:23:37;14.00;99.90
16879;DHT22;8556;52.218;9.884;2023-06-10T05:26:03;14.10;99.90
16879;DHT22;8556;52.218;9.884;2023-06-10T05:28:30;14.10;99.90
16879;DHT22;8556;52.218;9.884;2023-06-10T05:30:57;14.00;99.90
16879;DHT22;8556;52.218;9.884;2023-06-10T05:33:24;14.00;99.90
16879;DHT22;8556;52.218;9.884;2023-06-10T05:35:52;13.90;99.90
16879;DHT22;8556;52.218;9.884;2023-06-10T05:38:19;14.00;99.90
16879;DHT22;8556;52.218;9.884;2023-06-10T05:40:46;14.00;99.90
16879;DHT22;8556;52.218;9.884;2023-06-10T05:43:13;13.90;99.90
16879;DHT22;8556;52.218;9.884;2023-06-10T05:45:42;13.90;99.90
16879;DHT22;8556;52.218;9.884;2023-06-10T05:48:09;13.90;99.90
16879;DHT22;8556;52.218;9.884;2023-06-10T05:50:35;14.00;99.90
16879;DHT22;8556;52.218;9.884;2023-06-10T05:53:05;14.10;99.90
16879;DHT22;8556;52.218;9.884;2023-06-10T05:55:33;14.10;99.90
16879;DHT22;8556;52.218;9.884;2023-06-10T05:58:01;14.10;99.90
16879;DHT22;8556;52.218;9.884;2023-06-10T06:00:28;14.00;99.90
16879;DHT22;8556;52.218;9.884;2023-06-10T06:02:55;14.10;99.90
16879;DHT22;8556;52.218;9.884;2023-06-10T06:05:22;14.10;99.90
16879;DHT22;8556;52.218;9.884;2023-06-10T06:07:49;14.30;99.90
16879;DHT22;8556;52.218;9.884;2023-06-10T06:10:18;14.40;99.90
16879;DHT22;8556;52.218;9.884;2023-06-10T06:12:45;14.30;99.90
16879;DHT22;8556;52.218;9.884;2023-06-10T06:15:12;14.40;99.90
16879;DHT22;8556;52.218;9.884;2023-06-10T06:17:38;14.40;99.90
16879;DHT22;8556;52.218;9.884;2023-06-10T06:20:07;14.40;99.90
16879;DHT22;8556;52.218;9.884;2023-06-10T06:22:34;14.30;99.90
16879;DHT22;8556;52.218;9.884;2023-06-10T06:25:00;14.40;99.90
16879;DHT22;8556;52.218;9.884;2023-06-10T06:27:29;14.50;99.90
16879;DHT22;8556;52.218;9.884;2023-06-10T06:29:56;14.60;99.90
16879;DHT22;8556;52.218;9.884;2023-06-10T06:32:23;14.90;99.90
16879;DHT22;8556;52.218;9.884;2023-06-10T06:34:51;14.70;99.90
16879;DHT22;8556;52.218;9.884;2023-06-10T06:37:21;14.90;99.90
16879;DHT22;8556;52.218;9.884;2023-06-10T06:39:48;14.90;99.90
16879;DHT22;8556;52.218;9.884;2023-06-10T06:42:14;14.90;99.90
16879;DHT22;8556;52.218;9.884;2023-06-10T06:44:44;14.90;99.90
16879;DHT22;8556;52.218;9.884;2023-06-10T06:47:10;15.00;99.90
16879;DHT22;8556;52.218;9.884;2023-06-10T06:49:37;15.00;99.90
16879;DHT22;8556;52.218;9.884;2023-06-10T06:52:04;15.10;99.90
16879;DHT22;8556;52.218;9.884;2023-06-10T06:54:31;15.20;99.90
16879;DHT22;8556;52.218;9.884;2023-06-10T06:56:58;15.00;99.90
16879;DHT22;8556;52.218;9.884;2023-06-10T06:59:25;15.40;99.90
16879;DHT22;8556;52.218;9.884;2023-06-10T07:01:53;15.60;99.90
16879;DHT22;8556;52.218;9.884;2023-06-10T07:04:20;15.50;99.90
16879;DHT22;8556;52.218;9.884;2023-06-10T07:06:47;15.60;99.90
16879;DHT22;8556;52.218;9.884;2023-06-10T07:09:14;16.00;99.90
16879;DHT22;8556;52.218;9.884;2023-06-10T07:11:41;16.10;99.90
16879;DHT22;8556;52.218;9.884;2023-06-10T07:14:08;15.80;99.90
16879;DHT22;8556;52.218;9.884;2023-06-10T07:16:34;16.20;99.90
16879;DHT22;8556;52.218;9.884;2023-06-10T07:19:02;16.20;99.90
16879;DHT22;8556;52.218;9.884;2023-06-10T07:21:30;16.30;99.90
16879;DHT22;8556;52.218;9.884;2023-06-10T07:23:58;16.20;99.90
16879;DHT22;8556;52.218;9.884;2023-06-10T07:26:24;16.10;99.90
16879;DHT22;8556;52.218;9.884;2023-06-10T07:28:52;16.30;99.90
16879;DHT22;8556;52.218;9.884;2023-06-10T07:31:19;16.20;99.90
16879;DHT22;8556;52.218;9.884;2023-06-10T07:33:46;16.40;99.90
16879;DHT22;8556;52.218;9.884;2023-06-10T07:36:14;16.40;99.90
16879;DHT22;8556;52.218;9.884;2023-06-10T07:38:41;16.30;99.90
16879;DHT22;8556;52.218;9.884;2023-06-10T07:41:08;16.40;99.90
16879;DHT22;8556;52.218;9.884;2023-06-10T07:43:36;16.40;99.90
16879;DHT22;8556;52.218;9.884;2023-06-10T07:46:03;16.60;99.90
16879;DHT22;8556;52.218;9.884;2023-06-10T07:48:31;16.60;99.90
16879;DHT22;8556;52.218;9.884;2023-06-10T07:50:58;16.60;99.90
16879;DHT22;8556;52.218;9.884;2023-06-10T07:53:26;16.60;99.90
16879;DHT22;8556;52.218;9.884;2023-06-10T07:55:53;16.90;99.90
16879;DHT22;8556;52.218;9.884;2023-06-10T07:58:20;17.20;99.90
16879;DHT22;8556;52.218;9.884;2023-06-10T08:00:47;17.00;99.90
16879;DHT22;8556;52.218;9.884;2023-06-10T08:03:14;17.10;99.90
16879;DHT22;8556;52.218;9.884;2023-06-10T08:05:41;17.10;99.90
16879;DHT22;8556;52.218;9.884;2023-06-10T08:08:08;17.10;99.90
16879;DHT22;8556;52.218;9.884;2023-06-10T08:10:36;17.00;99.90
16879;DHT22;8556;52.218;9.884;2023-06-10T08:13:03;17.30;99.90
16879;DHT22;8556;52.218;9.884;2023-06-10T08:15:30;17.40;99.90
16879;DHT22;8556;52.218;9.884;2023-06-10T08:17:57;17.20;99.90
16879;DHT22;8556;52.218;9.884;2023-06-10T08:20:24;17.40;99.90
16879;DHT22;8556;52.218;9.884;2023-06-10T08:22:51;17.50;99.90
16879;DHT22;8556;52.218;9.884;2023-06-10T08:25:18;17.50;99.90
16879;DHT22;8556;52.218;9.884;2023-06-10T08:27:48;17.50;99.90
16879;DHT22;8556;52.218;9.884;2023-06-10T08:30:16;17.50;99.90
16879;DHT22;8556;52.218;9.884;2023-06-10T08:32:43;17.70;99.90
16879;DHT22;8556;52.218;9.884;2023-06-10T08:35:10;17.80;99.90
16879;DHT22;8556;52.218;9.884;2023-06-10T08:37:37;17.90;99.90
16879;DHT22;8556;52.218;9.884;2023-06-10T08:40:05;17.90;99.90
16879;DHT22;8556;52.218;9.884;2023-06-10T08:42:36;18.10;99.90
16879;DHT22;8556;52.218;9.884;2023-06-10T08:45:07;18.10;99.90
16879;DHT22;8556;52.218;9.884;2023-06-10T08:47:37;18.30;99.90
16879;DHT22;8556;52.218;9.884;2023-06-10T08:50:07;18.60;99.90
16879;DHT22;8556;52.218;9.884;2023-06-10T08:52:36;18.90;99.90
16879;DHT22;8556;52.218;9.884;2023-06-10T08:55:04;19.00;99.90
16879;DHT22;8556;52.218;9.884;2023-06-10T08:57:31;19.30;99.90
16879;DHT22;8556;52.218;9.884;2023-06-10T08:59:58;19.20;99.90
16879;DHT22;8556;52.218;9.884;2023-06-10T09:02:27;19.50;99.90
16879;DHT22;8556;52.218;9.884;2023-06-10T09:04:56;20.00;99.90
16879;DHT22;8556;52.218;9.884;2023-06-10T09:07:23;20.10;99.90
16879;DHT22;8556;52.218;9.884;2023-06-10T09:09:50;20.50;99.90
16879;DHT22;8556;52.218;9.884;2023-06-10T09:12:19;20.90;99.90
16879;DHT22;8556;52.218;9.884;2023-06-10T09:14:46;20.90;99.90
16879;DHT22;8556;52.218;9.884;2023-06-10T09:17:13;20.80;99.90
16879;DHT22;8556;52.218;9.884;2023-06-10T09:19:41;21.20;99.90
16879;DHT22;8556;52.218;9.884;2023-06-10T09:22:09;21.10;99.90
16879;DHT22;8556;52.218;9.884;2023-06-10T09:24:36;21.40;99.90
16879;DHT22;8556;52.218;9.884;2023-06-10T09:27:04;21.60;99.90
16879;DHT22;8556;52.218;9.884;2023-06-10T09:29:31;21.50;99.90
16879;DHT22;8556;52.218;9.884;2023-06-10T09:31:58;22.20;99.90
16879;DHT22;8556;52.218;9.884;2023-06-10T09:34:26;21.90;99.90
16879;DHT22;8556;52.218;9.884;2023-06-10T09:36:54;21.80;99.90
16879;DHT22;8556;52.218;9.884;2023-06-10T09:39:21;22.00;99.90
16879;DHT22;8556;52.218;9.884;2023-06-10T09:41:48;22.20;99.90
16879;DHT22;8556;52.218;9.884;2023-06-10T09:44:16;22.10;99.90
16879;DHT22;8556;52.218;9.884;2023-06-10T09:46:45;22.40;99.90
16879;DHT22;8556;52.218;9.884;2023-06-10T09:49:12;22.40;99.90
16879;DHT22;8556;52.218;9.884;2023-06-10T09:51:49;22.90;99.90
16879;DHT22;8556;52.218;9.884;2023-06-10T09:54:18;22.80;99.90
16879;DHT22;8556;52.218;9.884;2023-06-10T09:56:47;22.60;99.90
16879;DHT22;8556;52.218;9.884;2023-06-10T09:59:14;22.90;99.90
16879;DHT22;8556;52.218;9.884;2023-06-10T10:01:41;22.30;99.90
16879;DHT22;8556;52.218;9.884;2023-06-10T10:04:08;23.20;99.90
16879;DHT22;8556;52.218;9.884;2023-06-10T10:06:35;23.30;99.90
16879;DHT22;8556;52.218;9.884;2023-06-10T10:09:03;23.20;99.90
16879;DHT22;8556;52.218;9.884;2023-06-10T10:11:33;23.10;99.90
16879;DHT22;8556;52.218;9.884;2023-06-10T10:14:03;23.50;99.90
16879;DHT22;8556;52.218;9.884;2023-06-10T10:16:35;23.50;99.90
16879;DHT22;8556;52.218;9.884;2023-06-10T10:19:07;23.40;99.90
16879;DHT22;8556;52.218;9.884;2023-06-10T10:21:38;23.30;99.90
16879;DHT22;8556;52.218;9.884;2023-06-10T10:24:12;23.40;99.90
16879;DHT22;8556;52.218;9.884;2023-06-10T10:26:41;23.80;99.90
16879;DHT22;8556;52.218;9.884;2023-06-10T10:29:11;23.70;99.90
16879;DHT22;8556;52.218;9.884;2023-06-10T10:31:42;23.90;99.90
16879;DHT22;8556;52.218;9.884;2023-06-10T10:34:15;23.70;99.90
16879;DHT22;8556;52.218;9.884;2023-06-10T10:36:42;23.80;99.90
16879;DHT22;8556;52.218;9.884;2023-06-10T10:39:09;23.80;99.90
16879;DHT22;8556;52.218;9.884;2023-06-10T10:41:38;24.10;99.90
16879;DHT22;8556;52.218;9.884;2023-06-10T10:44:07;24.50;99.90
16879;DHT22;8556;52.218;9.884;2023-06-10T10:46:42;24.10;99.90
16879;DHT22;8556;52.218;9.884;2023-06-10T10:49:11;24.70;99.90
16879;DHT22;8556;52.218;9.884;2023-06-10T10:51:54;25.00;99.90
16879;DHT22;8556;52.218;9.884;2023-06-10T10:54:28;25.00;99.90
16879;DHT22;8556;52.218;9.884;2023-06-10T10:57:17;24.70;99.90
16879;DHT22;8556;52.218;9.884;2023-06-10T10:59:57;24.40;99.90
16879;DHT22;8556;52.218;9.884;2023-06-10T11:02:40;24.60;99.90
16879;DHT22;8556;52.218;9.884;2023-06-10T11:05:09;24.80;99.90
16879;DHT22;8556;52.218;9.884;2023-06-10T11:07:36;24.80;99.90
16879;DHT22;8556;52.218;9.884;2023-06-10T11:10:06;24.90;99.90
16879;DHT22;8556;52.218;9.884;2023-06-10T11:12:57;24.70;99.90
16879;DHT22;8556;52.218;9.884;2023-06-10T11:15:26;24.80;99.90
16879;DHT22;8556;52.218;9.884;2023-06-10T11:18:27;25.00;99.90
16879;DHT22;8556;52.218;9.884;2023-06-10T11:20:56;24.70;99.90
16879;DHT22;8556;52.218;9.884;2023-06-10T11:23:38;24.70;99.90
16879;DHT22;8556;52.218;9.884;2023-06-10T11:26:30;25.20;99.90
16879;DHT22;8556;52.218;9.884;2023-06-10T11:29:07;25.20;99.90
16879;DHT22;8556;52.218;9.884;2023-06-10T11:31:49;25.20;99.90
16879;DHT22;8556;52.218;9.884;2023-06-10T11:34:23;25.50;99.90
16879;DHT22;8556;52.218;9.884;2023-06-10T11:36:52;25.60;99.90
16879;DHT22;8556;52.218;9.884;2023-06-10T11:39:20;25.60;99.90
16879;DHT22;8556;52.218;9.884;2023-06-10T11:41:50;25.50;99.90
16879;DHT22;8556;52.218;9.884;2023-06-10T11:44:17;25.80;99.90
16879;DHT22;8556;52.218;9.884;2023-06-10T11:46:48;25.90;99.90
16879;DHT22;8556;52.218;9.884;2023-06-10T11:49:17;25.90;99.90
16879;DHT22;8556;52.218;9.884;2023-06-10T11:51:44;26.20;73.50
16879;DHT22;8556;52.218;9.884;2023-06-10T11:54:15;26.10;1.00
16879;DHT22;8556;52.218;9.884;2023-06-10T11:56:42;26.10;1.00
16879;DHT22;8556;52.218;9.884;2023-06-10T11:59:09;26.00;1.00
16879;DHT22;8556;52.218;9.884;2023-06-10T12:01:43;26.10;1.00
16879;DHT22;8556;52.218;9.884;2023-06-10T12:04:12;26.20;99.90
16879;DHT22;8556;52.218;9.884;2023-06-10T12:06:42;26.50;99.90
16879;DHT22;8556;52.218;9.884;2023-06-10T12:09:20;25.90;99.90
16879;DHT22;8556;52.218;9.884;2023-06-10T12:11:49;26.70;28.50
16879;DHT22;8556;52.218;9.884;2023-06-10T12:14:17;26.40;1.00
16879;DHT22;8556;52.218;9.884;2023-06-10T12:17:04;26.40;1.00
16879;DHT22;8556;52.218;9.884;2023-06-10T12:19:38;26.50;1.00
16879;DHT22;8556;52.218;9.884;2023-06-10T12:22:05;26.50;99.90
16879;DHT22;8556;52.218;9.884;2023-06-10T12:24:32;26.90;1.00
16879;DHT22;8556;52.218;9.884;2023-06-10T12:26:59;27.00;99.90
16879;DHT22;8556;52.218;9.884;2023-06-10T12:29:25;26.80;1.00
16879;DHT22;8556;52.218;9.884;2023-06-10T12:32:00;26.90;99.90
16879;DHT22;8556;52.218;9.884;2023-06-10T12:34:34;26.40;1.00
16879;DHT22;8556;52.218;9.884;2023-06-10T12:37:01;26.90;99.90
16879;DHT22;8556;52.218;9.884;2023-06-10T12:39:29;26.80;99.90
16879;DHT22;8556;52.218;9.884;2023-06-10T12:41:57;26.80;99.90
16879;DHT22;8556;52.218;9.884;2023-06-10T12:44:31;27.00;1.00
16879;DHT22;8556;52.218;9.884;2023-06-10T12:46:57;26.80;67.80
16879;DHT22;8556;52.218;9.884;2023-06-10T12:49:25;26.90;1.00
16879;DHT22;8556;52.218;9.884;2023-06-10T12:51:53;26.80;1.00
16879;DHT22;8556;52.218;9.884;2023-06-10T12:54:20;26.50;99.90
16879;DHT22;8556;52.218;9.884;2023-06-10T12:56:48;26.60;99.90
16879;DHT22;8556;52.218;9.884;2023-06-10T12:59:15;26.50;99.90
16879;DHT22;8556;52.218;9.884;2023-06-10T13:01:42;26.50;1.00
16879;DHT22;8556;52.218;9.884;2023-06-10T13:04:09;26.70;99.90
16879;DHT22;8556;52.218;9.884;2023-06-10T13:06:35;26.90;1.00
16879;DHT22;8556;52.218;9.884;2023-06-10T13:09:05;27.20;1.00
16879;DHT22;8556;52.218;9.884;2023-06-10T13:11:33;27.50;1.00
16879;DHT22;8556;52.218;9.884;2023-06-10T13:14:02;27.60;1.00
16879;DHT22;8556;52.218;9.884;2023-06-10T13:16:30;27.60;99.90
16879;DHT22;8556;52.218;9.884;2023-06-10T13:18:57;27.40;1.00
16879;DHT22;8556;52.218;9.884;2023-06-10T13:21:24;27.10;1.00
16879;DHT22;8556;52.218;9.884;2023-06-10T13:23:51;27.10;1.00
16879;DHT22;8556;52.218;9.884;2023-06-10T13:26:19;27.10;99.90
16879;DHT22;8556;52.218;9.884;2023-06-10T13:28:47;26.60;1.00
16879;DHT22;8556;52.218;9.884;2023-06-10T13:31:14;26.90;1.00
16879;DHT22;8556;52.218;9.884;2023-06-10T13:33:40;27.40;1.00
16879;DHT22;8556;52.218;9.884;2023-06-10T13:36:09;27.20;99.90
16879;DHT22;8556;52.218;9.884;2023-06-10T13:38:35;26.90;1.00
16879;DHT22;8556;52.218;9.884;2023-06-10T13:41:04;27.20;99.90
16879;DHT22;8556;52.218;9.884;2023-06-10T13:43:32;26.60;1.00
16879;DHT22;8556;52.218;9.884;2023-06-10T13:45:59;26.70;99.90
16879;DHT22;8556;52.218;9.884;2023-06-10T13:48:26;27.20;1.00
16879;DHT22;8556;52.218;9.884;2023-06-10T13:50:53;27.20;1.00
16879;DHT22;8556;52.218;9.884;2023-06-10T13:53:20;27.50;1.00
16879;DHT22;8556;52.218;9.884;2023-06-10T13:55:47;27.00;1.00
16879;DHT22;8556;52.218;9.884;2023-06-10T13:58:13;27.00;1.00
16879;DHT22;8556;52.218;9.884;2023-06-10T14:00:42;27.20;1.00
16879;DHT22;8556;52.218;9.884;2023-06-10T14:03:08;27.20;1.00
16879;DHT22;8556;52.218;9.884;2023-06-10T14:05:35;27.10;1.00
16879;DHT22;8556;52.218;9.884;2023-06-10T14:08:02;27.50;1.00
16879;DHT22;8556;52.218;9.884;2023-06-10T14:10:29;27.70;99.90
16879;DHT22;8556;52.218;9.884;2023-06-10T14:12:56;27.30;1.00
16879;DHT22;8556;52.218;9.884;2023-06-10T14:15:23;27.50;99.90
16879;DHT22;8556;52.218;9.884;2023-06-10T14:17:51;27.60;1.00
16879;DHT22;8556;52.218;9.884;2023-06-10T14:20:18;27.80;1.00
16879;DHT22;8556;52.218;9.884;2023-06-10T14:22:45;27.20;99.90
16879;DHT22;8556;52.218;9.884;2023-06-10T14:25:11;27.50;60.60
16879;DHT22;8556;52.218;9.884;2023-06-10T14:27:38;27.10;99.90
16879;DHT22;8556;52.218;9.884;2023-06-10T14:30:06;27.00;99.90
16879;DHT22;8556;52.218;9.884;2023-06-10T14:32:33;27.00;99.90
16879;DHT22;8556;52.218;9.884;2023-06-10T14:35:02;27.60;99.90
16879;DHT22;8556;52.218;9.884;2023-06-10T14:37:29;27.20;99.90
16879;DHT22;8556;52.218;9.884;2023-06-10T14:39:56;27.30;99.90
16879;DHT22;8556;52.218;9.884;2023-06-10T14:42:23;27.60;1.00
16879;DHT22;8556;52.218;9.884;2023-06-10T14:44:50;27.50;1.00
16879;DHT22;8556;52.218;9.884;2023-06-10T14:47:17;27.50;1.00
16879;DHT22;8556;52.218;9.884;2023-06-10T14:49:44;27.50;1.00
16879;DHT22;8556;52.218;9.884;2023-06-10T14:52:12;27.40;1.00
16879;DHT22;8556;52.218;9.884;2023-06-10T14:54:39;27.40;1.00
16879;DHT22;8556;52.218;9.884;2023-06-10T14:57:06;27.30;59.80
16879;DHT22;8556;52.218;9.884;2023-06-10T14:59:33;27.40;99.90
16879;DHT22;8556;52.218;9.884;2023-06-10T15:02:00;27.20;99.90
16879;DHT22;8556;52.218;9.884;2023-06-10T15:04:27;27.30;99.90
16879;DHT22;8556;52.218;9.884;2023-06-10T15:06:54;27.00;99.90
16879;DHT22;8556;52.218;9.884;2023-06-10T15:09:22;27.00;99.90
16879;DHT22;8556;52.218;9.884;2023-06-10T15:11:49;26.90;1.00
16879;DHT22;8556;52.218;9.884;2023-06-10T15:14:16;27.10;1.00
16879;DHT22;8556;52.218;9.884;2023-06-10T15:16:43;27.10;99.90
16879;DHT22;8556;52.218;9.884;2023-06-10T15:19:10;27.20;1.00
16879;DHT22;8556;52.218;9.884;2023-06-10T15:21:36;27.10;1.00
16879;DHT22;8556;52.218;9.884;2023-06-10T15:24:04;27.10;1.00
16879;DHT22;8556;52.218;9.884;2023-06-10T15:26:32;26.90;1.00
16879;DHT22;8556;52.218;9.884;2023-06-10T15:28:59;26.90;1.00
16879;DHT22;8556;52.218;9.884;2023-06-10T15:31:29;26.80;1.00
16879;DHT22;8556;52.218;9.884;2023-06-10T15:33:57;26.90;1.00
16879;DHT22;8556;52.218;9.884;2023-06-10T15:36:24;26.80;1.00
16879;DHT22;8556;52.218;9.884;2023-06-10T15:38:51;26.90;1.00
16879;DHT22;8556;52.218;9.884;2023-06-10T15:41:18;26.90;1.00
16879;DHT22;8556;52.218;9.884;2023-06-10T15:43:46;26.80;32.00
16879;DHT22;8556;52.218;9.884;2023-06-10T15:46:13;26.80;1.00
16879;DHT22;8556;52.218;9.884;2023-06-10T15:48:39;26.80;1.00
16879;DHT22;8556;52.218;9.884;2023-06-10T15:51:06;26.90;1.00
16879;DHT22;8556;52.218;9.884;2023-06-10T15:53:33;26.90;1.00